Progreso, Mexico

3:35 AM EST on February 06, 2016 (GMT -0500)
INSTITUTO TECNOLOGICO SUPERIOR DE PROGRESO | | Change Station
CLOSE
Current Station
Personal Weather Station
Location: Progreso, YUCATáN
Elevation: 7 ft
Nearby Weather Stations

Elev 7 ft 21.28 °N, 89.65 °W | Updated 49 seconds ago

Overcast
Overcast
69.7 °F
Feels Like 69.7 °F
N
9.0
Wind Variable Wind from NNE
Gusts 12.0 mph

Today
High -- | Low -- °F
--% Chance of Precip.
Yesterday
High -- | Low -- °F
Precip. -- in
Pressure 30.12 in
Visibility 6.0 miles
Clouds Overcast 2500 ft
Dew Point 66 °F
Humidity 87%
Rainfall 0.00 in
Snow Depth Not available.
7:34 AM 6:51 PM
Waning Crescent, 6% visible
METAR MMMD 060745Z 00000KT 6SM OVC025 19/18 A3012 RMK 8/5// HZY
Pressure 30.12 in
Visibility 6.0 miles
Clouds Overcast 2500 ft
Dew Point 66 °F
Humidity 87%
Rainfall 0.00 in
Snow Depth Not available.
7:34 AM 6:51 PM
Waning Crescent, 6% visible
METAR MMMD 060745Z 00000KT 6SM OVC025 19/18 A3012 RMK 8/5// HZY

10-Day Weather Forecast

No radar image for this location.
×

Almanac

Astronomy

Feb. 06, 2016 Rise Set
Actual Time
Civil Twilight
Nautical Twilight
Astronomical Twilight
Moon
Length of Visible Light
Length of Day
Tomorrow will be .
, % of the Moon is Illuminated

Today's Extremes

Country Highs Country Lows

Community

WunderPhotos

Upload Photos

1,890,933 photos uploaded!

WunderBlog® & News

Nearby

Air Quality

  Air Quality AQ Index Pollutant
Not available.

Snow Depth

Station Depth Elevation

Earthquake Activity

City Distance Mag. Time & Date
Minimum magnitude displayed is 2.5.

Coastal Water Temperatures

Place Temperature

Stations

Nearby Weather Stations

Station Location Temp. Windchill Dew Point Humidity Wind Precip. Elev Updated Type